sensor_id;sensor_type;location;lat;lon;timestamp;temperature;humidity
11617;DHT22;5864;52.998;9.068;2023-02-14T00:02:25;5.20;99.90
11617;DHT22;5864;52.998;9.068;2023-02-14T00:04:54;5.20;99.90
11617;DHT22;5864;52.998;9.068;2023-02-14T00:07:21;5.20;99.90
11617;DHT22;5864;52.998;9.068;2023-02-14T00:09:48;5.20;99.90
11617;DHT22;5864;52.998;9.068;2023-02-14T00:12:16;5.20;99.90
11617;DHT22;5864;52.998;9.068;2023-02-14T00:14:44;5.20;99.90
11617;DHT22;5864;52.998;9.068;2023-02-14T00:17:29;5.20;99.90
11617;DHT22;5864;52.998;9.068;2023-02-14T00:19:58;5.20;99.90
11617;DHT22;5864;52.998;9.068;2023-02-14T00:22:26;5.20;99.90
11617;DHT22;5864;52.998;9.068;2023-02-14T00:24:53;5.20;99.90
11617;DHT22;5864;52.998;9.068;2023-02-14T00:27:21;5.30;99.90
11617;DHT22;5864;52.998;9.068;2023-02-14T00:29:48;5.30;99.90
11617;DHT22;5864;52.998;9.068;2023-02-14T00:32:15;5.30;99.90
11617;DHT22;5864;52.998;9.068;2023-02-14T00:34:43;5.30;99.90
11617;DHT22;5864;52.998;9.068;2023-02-14T00:37:12;5.40;99.90
11617;DHT22;5864;52.998;9.068;2023-02-14T00:39:39;5.40;99.90
11617;DHT22;5864;52.998;9.068;2023-02-14T00:42:07;5.40;99.90
11617;DHT22;5864;52.998;9.068;2023-02-14T00:44:34;5.40;99.90
11617;DHT22;5864;52.998;9.068;2023-02-14T00:47:03;5.40;99.90
11617;DHT22;5864;52.998;9.068;2023-02-14T00:49:30;5.40;99.90
11617;DHT22;5864;52.998;9.068;2023-02-14T00:51:58;5.40;99.90
11617;DHT22;5864;52.998;9.068;2023-02-14T00:54:27;5.40;99.90
11617;DHT22;5864;52.998;9.068;2023-02-14T00:56:54;5.40;99.90
11617;DHT22;5864;52.998;9.068;2023-02-14T00:59:22;5.50;99.90
11617;DHT22;5864;52.998;9.068;2023-02-14T01:01:49;5.40;99.90
11617;DHT22;5864;52.998;9.068;2023-02-14T01:04:17;5.50;99.90
11617;DHT22;5864;52.998;9.068;2023-02-14T01:06:44;5.50;99.90
11617;DHT22;5864;52.998;9.068;2023-02-14T01:09:12;5.50;99.90
11617;DHT22;5864;52.998;9.068;2023-02-14T01:11:41;5.50;99.90
11617;DHT22;5864;52.998;9.068;2023-02-14T01:14:08;5.40;99.90
11617;DHT22;5864;52.998;9.068;2023-02-14T01:16:37;5.40;99.90
11617;DHT22;5864;52.998;9.068;2023-02-14T01:19:05;5.40;99.90
11617;DHT22;5864;52.998;9.068;2023-02-14T01:21:34;5.40;99.90
11617;DHT22;5864;52.998;9.068;2023-02-14T01:24:04;5.40;99.90
11617;DHT22;5864;52.998;9.068;2023-02-14T01:26:33;5.40;99.90
11617;DHT22;5864;52.998;9.068;2023-02-14T01:29:03;5.40;99.90
11617;DHT22;5864;52.998;9.068;2023-02-14T01:31:32;5.40;99.90
11617;DHT22;5864;52.998;9.068;2023-02-14T01:34:00;5.40;99.90
11617;DHT22;5864;52.998;9.068;2023-02-14T01:36:30;5.40;99.90
11617;DHT22;5864;52.998;9.068;2023-02-14T01:39:00;5.30;99.90
11617;DHT22;5864;52.998;9.068;2023-02-14T01:41:30;5.40;99.90
11617;DHT22;5864;52.998;9.068;2023-02-14T01:44:00;5.30;99.90
11617;DHT22;5864;52.998;9.068;2023-02-14T01:46:31;5.30;99.90
11617;DHT22;5864;52.998;9.068;2023-02-14T01:49:04;5.20;99.90
11617;DHT22;5864;52.998;9.068;2023-02-14T01:51:33;5.30;99.90
11617;DHT22;5864;52.998;9.068;2023-02-14T01:54:03;5.30;99.90
11617;DHT22;5864;52.998;9.068;2023-02-14T01:56:35;5.30;99.90
11617;DHT22;5864;52.998;9.068;2023-02-14T01:59:06;5.30;99.90
11617;DHT22;5864;52.998;9.068;2023-02-14T02:01:36;5.20;99.90
11617;DHT22;5864;52.998;9.068;2023-02-14T02:04:07;5.20;99.90
11617;DHT22;5864;52.998;9.068;2023-02-14T02:06:38;5.20;99.90
11617;DHT22;5864;52.998;9.068;2023-02-14T02:09:11;5.20;99.90
11617;DHT22;5864;52.998;9.068;2023-02-14T02:11:40;5.20;99.90
11617;DHT22;5864;52.998;9.068;2023-02-14T02:14:12;5.10;99.90
11617;DHT22;5864;52.998;9.068;2023-02-14T02:26:25;5.00;99.90
11617;DHT22;5864;52.998;9.068;2023-02-14T02:29:38;4.90;99.90
11617;DHT22;5864;52.998;9.068;2023-02-14T02:32:32;4.90;99.90
11617;DHT22;5864;52.998;9.068;2023-02-14T02:35:24;4.90;99.90
11617;DHT22;5864;52.998;9.068;2023-02-14T02:38:12;4.90;99.90
11617;DHT22;5864;52.998;9.068;2023-02-14T02:40:47;4.80;99.90
11617;DHT22;5864;52.998;9.068;2023-02-14T02:43:32;4.80;99.90
11617;DHT22;5864;52.998;9.068;2023-02-14T02:46:04;4.70;99.90
11617;DHT22;5864;52.998;9.068;2023-02-14T02:48:55;4.70;99.90
11617;DHT22;5864;52.998;9.068;2023-02-14T02:51:32;4.70;99.90
11617;DHT22;5864;52.998;9.068;2023-02-14T02:54:19;4.50;99.90
11617;DHT22;5864;52.998;9.068;2023-02-14T02:56:51;4.50;99.90
11617;DHT22;5864;52.998;9.068;2023-02-14T02:59:24;4.50;99.90
11617;DHT22;5864;52.998;9.068;2023-02-14T03:01:58;4.50;99.90
11617;DHT22;5864;52.998;9.068;2023-02-14T03:04:28;4.50;99.90
11617;DHT22;5864;52.998;9.068;2023-02-14T03:07:20;4.50;99.90
11617;DHT22;5864;52.998;9.068;2023-02-14T03:10:07;4.50;99.90
11617;DHT22;5864;52.998;9.068;2023-02-14T03:13:13;4.40;99.90
11617;DHT22;5864;52.998;9.068;2023-02-14T03:15:52;4.40;99.90
11617;DHT22;5864;52.998;9.068;2023-02-14T03:18:42;4.40;99.90
11617;DHT22;5864;52.998;9.068;2023-02-14T03:21:31;4.40;99.90
11617;DHT22;5864;52.998;9.068;2023-02-14T03:24:08;4.30;99.90
11617;DHT22;5864;52.998;9.068;2023-02-14T03:26:42;4.40;99.90
11617;DHT22;5864;52.998;9.068;2023-02-14T03:29:18;4.30;99.90
11617;DHT22;5864;52.998;9.068;2023-02-14T03:31:54;4.20;99.90
11617;DHT22;5864;52.998;9.068;2023-02-14T03:34:29;4.20;99.90
11617;DHT22;5864;52.998;9.068;2023-02-14T03:37:02;4.20;99.90
11617;DHT22;5864;52.998;9.068;2023-02-14T03:39:38;4.00;99.90
11617;DHT22;5864;52.998;9.068;2023-02-14T03:42:12;4.20;99.90
11617;DHT22;5864;52.998;9.068;2023-02-14T03:44:41;4.10;99.90
11617;DHT22;5864;52.998;9.068;2023-02-14T03:47:11;4.10;99.90
11617;DHT22;5864;52.998;9.068;2023-02-14T03:49:43;4.10;99.90
11617;DHT22;5864;52.998;9.068;2023-02-14T03:52:13;4.10;99.90
11617;DHT22;5864;52.998;9.068;2023-02-14T03:54:44;4.10;99.90
11617;DHT22;5864;52.998;9.068;2023-02-14T03:57:18;4.10;99.90
11617;DHT22;5864;52.998;9.068;2023-02-14T03:59:47;4.10;99.90
11617;DHT22;5864;52.998;9.068;2023-02-14T04:02:20;4.10;99.90
11617;DHT22;5864;52.998;9.068;2023-02-14T04:04:51;4.10;99.90
11617;DHT22;5864;52.998;9.068;2023-02-14T04:07:21;4.00;99.90
11617;DHT22;5864;52.998;9.068;2023-02-14T04:09:50;4.00;99.90
11617;DHT22;5864;52.998;9.068;2023-02-14T04:12:19;4.00;99.90
11617;DHT22;5864;52.998;9.068;2023-02-14T04:14:46;4.00;99.90
11617;DHT22;5864;52.998;9.068;2023-02-14T04:17:14;4.00;99.90
11617;DHT22;5864;52.998;9.068;2023-02-14T04:19:59;4.00;99.90
11617;DHT22;5864;52.998;9.068;2023-02-14T04:22:26;3.90;99.90
11617;DHT22;5864;52.998;9.068;2023-02-14T04:24:55;3.90;99.90
11617;DHT22;5864;52.998;9.068;2023-02-14T04:27:22;4.00;99.90
11617;DHT22;5864;52.998;9.068;2023-02-14T04:29:50;3.90;99.90
11617;DHT22;5864;52.998;9.068;2023-02-14T04:32:19;4.00;99.90
11617;DHT22;5864;52.998;9.068;2023-02-14T04:34:47;4.00;99.90
11617;DHT22;5864;52.998;9.068;2023-02-14T04:37:16;4.00;99.90
11617;DHT22;5864;52.998;9.068;2023-02-14T04:39:44;4.00;99.90
11617;DHT22;5864;52.998;9.068;2023-02-14T04:42:13;4.00;99.90
11617;DHT22;5864;52.998;9.068;2023-02-14T04:44:41;4.10;99.90
11617;DHT22;5864;52.998;9.068;2023-02-14T04:47:08;4.10;99.90
11617;DHT22;5864;52.998;9.068;2023-02-14T04:49:36;4.10;99.90
11617;DHT22;5864;52.998;9.068;2023-02-14T04:52:04;4.10;99.90
11617;DHT22;5864;52.998;9.068;2023-02-14T04:54:32;4.00;99.90
11617;DHT22;5864;52.998;9.068;2023-02-14T04:56:59;4.00;99.90
11617;DHT22;5864;52.998;9.068;2023-02-14T04:59:28;4.00;99.90
11617;DHT22;5864;52.998;9.068;2023-02-14T05:01:55;4.00;99.90
11617;DHT22;5864;52.998;9.068;2023-02-14T05:04:23;4.00;99.90
11617;DHT22;5864;52.998;9.068;2023-02-14T05:06:51;4.00;99.90
11617;DHT22;5864;52.998;9.068;2023-02-14T05:09:18;3.90;99.90
11617;DHT22;5864;52.998;9.068;2023-02-14T05:11:46;3.90;99.90
11617;DHT22;5864;52.998;9.068;2023-02-14T05:14:13;3.90;99.90
11617;DHT22;5864;52.998;9.068;2023-02-14T05:16:42;3.80;99.90
11617;DHT22;5864;52.998;9.068;2023-02-14T05:19:10;3.80;99.90
11617;DHT22;5864;52.998;9.068;2023-02-14T05:21:37;3.80;99.90
11617;DHT22;5864;52.998;9.068;2023-02-14T05:24:05;3.80;99.90
11617;DHT22;5864;52.998;9.068;2023-02-14T05:26:33;3.80;99.90
11617;DHT22;5864;52.998;9.068;2023-02-14T05:29:00;3.70;99.90
11617;DHT22;5864;52.998;9.068;2023-02-14T05:31:28;3.70;99.90
11617;DHT22;5864;52.998;9.068;2023-02-14T05:33:57;3.70;99.90
11617;DHT22;5864;52.998;9.068;2023-02-14T05:36:25;3.70;99.90
11617;DHT22;5864;52.998;9.068;2023-02-14T05:38:52;3.70;99.90
11617;DHT22;5864;52.998;9.068;2023-02-14T05:41:20;3.60;99.90
11617;DHT22;5864;52.998;9.068;2023-02-14T05:43:47;3.60;99.90
11617;DHT22;5864;52.998;9.068;2023-02-14T05:46:15;3.60;99.90
11617;DHT22;5864;52.998;9.068;2023-02-14T05:48:42;3.50;99.90
11617;DHT22;5864;52.998;9.068;2023-02-14T05:51:12;3.50;99.90
11617;DHT22;5864;52.998;9.068;2023-02-14T05:53:40;3.50;99.90
11617;DHT22;5864;52.998;9.068;2023-02-14T05:56:07;3.50;99.90
11617;DHT22;5864;52.998;9.068;2023-02-14T05:58:35;3.50;99.90
11617;DHT22;5864;52.998;9.068;2023-02-14T06:01:03;3.50;99.90
11617;DHT22;5864;52.998;9.068;2023-02-14T06:03:30;3.50;99.90
11617;DHT22;5864;52.998;9.068;2023-02-14T06:05:58;3.50;99.90
11617;DHT22;5864;52.998;9.068;2023-02-14T06:08:27;3.50;99.90
11617;DHT22;5864;52.998;9.068;2023-02-14T06:10:54;3.40;99.90
11617;DHT22;5864;52.998;9.068;2023-02-14T06:13:22;3.40;99.90
11617;DHT22;5864;52.998;9.068;2023-02-14T06:15:49;3.40;99.90
11617;DHT22;5864;52.998;9.068;2023-02-14T06:18:17;3.40;99.90
11617;DHT22;5864;52.998;9.068;2023-02-14T06:20:45;3.30;99.90
11617;DHT22;5864;52.998;9.068;2023-02-14T06:23:12;3.30;99.90
11617;DHT22;5864;52.998;9.068;2023-02-14T06:25:41;3.30;99.90
11617;DHT22;5864;52.998;9.068;2023-02-14T06:28:09;3.30;99.90
11617;DHT22;5864;52.998;9.068;2023-02-14T06:30:36;3.40;99.90
11617;DHT22;5864;52.998;9.068;2023-02-14T06:33:03;3.40;99.90
11617;DHT22;5864;52.998;9.068;2023-02-14T06:35:31;3.30;99.90
11617;DHT22;5864;52.998;9.068;2023-02-14T06:37:59;3.30;99.90
11617;DHT22;5864;52.998;9.068;2023-02-14T06:40:29;3.30;99.90
11617;DHT22;5864;52.998;9.068;2023-02-14T06:42:58;3.30;99.90
11617;DHT22;5864;52.998;9.068;2023-02-14T06:45:26;3.30;99.90
11617;DHT22;5864;52.998;9.068;2023-02-14T06:47:53;3.20;99.90
11617;DHT22;5864;52.998;9.068;2023-02-14T06:50:21;3.20;99.90
11617;DHT22;5864;52.998;9.068;2023-02-14T06:52:48;3.30;99.90
11617;DHT22;5864;52.998;9.068;2023-02-14T06:55:19;3.30;99.90
11617;DHT22;5864;52.998;9.068;2023-02-14T06:57:46;3.30;99.90
11617;DHT22;5864;52.998;9.068;2023-02-14T07:00:16;3.30;99.90
11617;DHT22;5864;52.998;9.068;2023-02-14T07:02:44;3.30;99.90
11617;DHT22;5864;52.998;9.068;2023-02-14T07:05:12;3.30;99.90
11617;DHT22;5864;52.998;9.068;2023-02-14T07:07:40;3.30;99.90
11617;DHT22;5864;52.998;9.068;2023-02-14T07:10:08;3.30;99.90
11617;DHT22;5864;52.998;9.068;2023-02-14T07:12:35;3.40;99.90
11617;DHT22;5864;52.998;9.068;2023-02-14T07:15:05;3.30;99.90
11617;DHT22;5864;52.998;9.068;2023-02-14T07:17:34;3.30;99.90
11617;DHT22;5864;52.998;9.068;2023-02-14T07:20:02;3.30;99.90
11617;DHT22;5864;52.998;9.068;2023-02-14T07:22:30;3.30;99.90
11617;DHT22;5864;52.998;9.068;2023-02-14T07:24:57;3.30;99.90
11617;DHT22;5864;52.998;9.068;2023-02-14T07:27:25;3.40;99.90
11617;DHT22;5864;52.998;9.068;2023-02-14T07:29:52;3.50;99.90
11617;DHT22;5864;52.998;9.068;2023-02-14T07:32:20;3.60;99.90
11617;DHT22;5864;52.998;9.068;2023-02-14T07:34:50;3.70;99.90
11617;DHT22;5864;52.998;9.068;2023-02-14T07:37:18;3.70;99.90
11617;DHT22;5864;52.998;9.068;2023-02-14T07:39:45;3.80;99.90
11617;DHT22;5864;52.998;9.068;2023-02-14T07:42:13;3.90;99.90
11617;DHT22;5864;52.998;9.068;2023-02-14T07:44:40;4.00;99.90
11617;DHT22;5864;52.998;9.068;2023-02-14T07:47:09;4.00;99.90
11617;DHT22;5864;52.998;9.068;2023-02-14T07:49:36;4.10;99.90
11617;DHT22;5864;52.998;9.068;2023-02-14T07:52:05;4.50;99.90
11617;DHT22;5864;52.998;9.068;2023-02-14T07:54:33;4.90;99.90
11617;DHT22;5864;52.998;9.068;2023-02-14T07:57:00;5.20;99.90
11617;DHT22;5864;52.998;9.068;2023-02-14T07:59:27;5.50;99.90
11617;DHT22;5864;52.998;9.068;2023-02-14T08:01:55;5.90;99.90
11617;DHT22;5864;52.998;9.068;2023-02-14T08:04:22;6.30;99.90
11617;DHT22;5864;52.998;9.068;2023-02-14T08:06:51;7.00;99.90
11617;DHT22;5864;52.998;9.068;2023-02-14T08:09:20;7.40;99.90
11617;DHT22;5864;52.998;9.068;2023-02-14T08:11:51;8.00;99.90
11617;DHT22;5864;52.998;9.068;2023-02-14T08:14:35;8.50;99.90
11617;DHT22;5864;52.998;9.068;2023-02-14T08:17:03;8.70;99.90
11617;DHT22;5864;52.998;9.068;2023-02-14T08:19:32;8.70;99.90
11617;DHT22;5864;52.998;9.068;2023-02-14T08:22:00;8.80;99.90
11617;DHT22;5864;52.998;9.068;2023-02-14T08:24:29;8.90;99.90
11617;DHT22;5864;52.998;9.068;2023-02-14T08:26:56;9.10;99.90
11617;DHT22;5864;52.998;9.068;2023-02-14T08:29:24;9.50;99.90
11617;DHT22;5864;52.998;9.068;2023-02-14T08:31:51;9.80;99.90
11617;DHT22;5864;52.998;9.068;2023-02-14T08:34:19;9.80;99.90
11617;DHT22;5864;52.998;9.068;2023-02-14T08:36:46;10.00;99.90
11617;DHT22;5864;52.998;9.068;2023-02-14T08:39:14;10.50;99.90
11617;DHT22;5864;52.998;9.068;2023-02-14T08:41:42;10.50;99.90
11617;DHT22;5864;52.998;9.068;2023-02-14T08:44:10;10.40;99.90
11617;DHT22;5864;52.998;9.068;2023-02-14T08:46:37;10.60;99.90
11617;DHT22;5864;52.998;9.068;2023-02-14T08:49:05;10.90;99.90
11617;DHT22;5864;52.998;9.068;2023-02-14T08:51:32;11.00;99.90
11617;DHT22;5864;52.998;9.068;2023-02-14T08:53:59;11.10;99.90
11617;DHT22;5864;52.998;9.068;2023-02-14T08:56:27;10.90;99.90
11617;DHT22;5864;52.998;9.068;2023-02-14T08:58:56;11.40;99.90
11617;DHT22;5864;52.998;9.068;2023-02-14T09:01:23;11.00;99.90
11617;DHT22;5864;52.998;9.068;2023-02-14T09:03:50;11.10;99.90
11617;DHT22;5864;52.998;9.068;2023-02-14T09:06:18;11.10;99.90
11617;DHT22;5864;52.998;9.068;2023-02-14T09:08:45;10.90;99.90
11617;DHT22;5864;52.998;9.068;2023-02-14T09:11:15;11.30;99.90
11617;DHT22;5864;52.998;9.068;2023-02-14T09:13:44;11.10;99.90
11617;DHT22;5864;52.998;9.068;2023-02-14T09:16:14;11.90;99.90
11617;DHT22;5864;52.998;9.068;2023-02-14T09:18:43;11.90;99.90
11617;DHT22;5864;52.998;9.068;2023-02-14T09:21:15;12.70;99.90
11617;DHT22;5864;52.998;9.068;2023-02-14T09:23:43;12.60;99.90
11617;DHT22;5864;52.998;9.068;2023-02-14T09:26:12;12.70;99.90
11617;DHT22;5864;52.998;9.068;2023-02-14T09:28:39;12.10;99.90
11617;DHT22;5864;52.998;9.068;2023-02-14T09:31:09;11.80;99.90
11617;DHT22;5864;52.998;9.068;2023-02-14T09:33:38;11.80;99.90
11617;DHT22;5864;52.998;9.068;2023-02-14T09:36:23;11.70;99.90
11617;DHT22;5864;52.998;9.068;2023-02-14T09:39:08;11.20;99.90
11617;DHT22;5864;52.998;9.068;2023-02-14T09:42:00;10.30;99.90
11617;DHT22;5864;52.998;9.068;2023-02-14T09:44:31;10.40;99.90
11617;DHT22;5864;52.998;9.068;2023-02-14T09:47:05;9.70;99.90
11617;DHT22;5864;52.998;9.068;2023-02-14T09:49:39;9.30;99.90
11617;DHT22;5864;52.998;9.068;2023-02-14T09:52:12;8.60;99.90
11617;DHT22;5864;52.998;9.068;2023-02-14T09:54:42;7.90;99.90
11617;DHT22;5864;52.998;9.068;2023-02-14T09:57:14;7.60;99.90
11617;DHT22;5864;52.998;9.068;2023-02-14T09:59:48;7.60;99.90
11617;DHT22;5864;52.998;9.068;2023-02-14T10:02:37;7.40;99.90
11617;DHT22;5864;52.998;9.068;2023-02-14T10:05:12;7.40;99.90
11617;DHT22;5864;52.998;9.068;2023-02-14T10:07:49;7.20;99.90
11617;DHT22;5864;52.998;9.068;2023-02-14T10:10:25;6.80;99.90
11617;DHT22;5864;52.998;9.068;2023-02-14T10:12:55;6.70;99.90
11617;DHT22;5864;52.998;9.068;2023-02-14T10:15:27;6.50;99.90
11617;DHT22;5864;52.998;9.068;2023-02-14T10:17:57;6.30;99.90
11617;DHT22;5864;52.998;9.068;2023-02-14T10:20:30;6.20;99.90
11617;DHT22;5864;52.998;9.068;2023-02-14T10:23:04;5.90;99.90
11617;DHT22;5864;52.998;9.068;2023-02-14T10:25:39;5.90;99.90
11617;DHT22;5864;52.998;9.068;2023-02-14T10:28:12;5.90;99.90
11617;DHT22;5864;52.998;9.068;2023-02-14T10:30:48;5.90;99.90
11617;DHT22;5864;52.998;9.068;2023-02-14T10:33:19;5.90;99.90
11617;DHT22;5864;52.998;9.068;2023-02-14T10:35:50;6.00;99.90
11617;DHT22;5864;52.998;9.068;2023-02-14T10:38:29;6.10;99.90
11617;DHT22;5864;52.998;9.068;2023-02-14T10:41:19;6.00;99.90
11617;DHT22;5864;52.998;9.068;2023-02-14T10:43:55;6.10;99.90
11617;DHT22;5864;52.998;9.068;2023-02-14T10:46:32;6.30;99.90
11617;DHT22;5864;52.998;9.068;2023-02-14T10:49:12;6.40;99.90
11617;DHT22;5864;52.998;9.068;2023-02-14T10:51:49;6.20;99.90
11617;DHT22;5864;52.998;9.068;2023-02-14T10:54:21;6.40;99.90
11617;DHT22;5864;52.998;9.068;2023-02-14T10:56:52;6.50;99.90
11617;DHT22;5864;52.998;9.068;2023-02-14T10:59:24;5.00;99.90
11617;DHT22;5864;52.998;9.068;2023-02-14T11:01:54;6.60;99.90
11617;DHT22;5864;52.998;9.068;2023-02-14T11:04:23;6.30;99.90
11617;DHT22;5864;52.998;9.068;2023-02-14T11:06:52;6.40;99.90
11617;DHT22;5864;52.998;9.068;2023-02-14T11:09:20;6.20;99.90
11617;DHT22;5864;52.998;9.068;2023-02-14T11:11:49;6.10;99.90
11617;DHT22;5864;52.998;9.068;2023-02-14T11:14:20;6.40;99.90
11617;DHT22;5864;52.998;9.068;2023-02-14T11:16:47;6.70;99.90
11617;DHT22;5864;52.998;9.068;2023-02-14T11:19:23;7.20;99.90
11617;DHT22;5864;52.998;9.068;2023-02-14T11:21:53;7.40;99.90
11617;DHT22;5864;52.998;9.068;2023-02-14T11:24:26;7.40;99.90
11617;DHT22;5864;52.998;9.068;2023-02-14T11:26:57;7.40;99.90
11617;DHT22;5864;52.998;9.068;2023-02-14T11:29:27;7.70;99.90
11617;DHT22;5864;52.998;9.068;2023-02-14T11:31:55;7.70;99.90
11617;DHT22;5864;52.998;9.068;2023-02-14T11:34:30;7.70;99.90
11617;DHT22;5864;52.998;9.068;2023-02-14T11:37:00;7.90;99.90
11617;DHT22;5864;52.998;9.068;2023-02-14T11:39:30;8.00;99.90
11617;DHT22;5864;52.998;9.068;2023-02-14T11:41:59;8.40;99.90
11617;DHT22;5864;52.998;9.068;2023-02-14T11:44:31;8.70;99.90
11617;DHT22;5864;52.998;9.068;2023-02-14T11:47:15;8.60;99.90
11617;DHT22;5864;52.998;9.068;2023-02-14T11:49:53;8.60;99.90
11617;DHT22;5864;52.998;9.068;2023-02-14T11:52:23;8.40;99.90
11617;DHT22;5864;52.998;9.068;2023-02-14T11:54:52;8.50;99.90
11617;DHT22;5864;52.998;9.068;2023-02-14T11:57:22;8.80;99.90
11617;DHT22;5864;52.998;9.068;2023-02-14T11:59:54;8.90;99.90
11617;DHT22;5864;52.998;9.068;2023-02-14T12:02:28;9.10;99.90
11617;DHT22;5864;52.998;9.068;2023-02-14T12:05:00;9.30;99.90
11617;DHT22;5864;52.998;9.068;2023-02-14T12:07:33;9.60;99.90
11617;DHT22;5864;52.998;9.068;2023-02-14T12:10:20;9.80;99.90
11617;DHT22;5864;52.998;9.068;2023-02-14T12:12:55;10.10;99.90
11617;DHT22;5864;52.998;9.068;2023-02-14T12:15:34;10.00;99.90
11617;DHT22;5864;52.998;9.068;2023-02-14T12:18:21;9.90;99.90
11617;DHT22;5864;52.998;9.068;2023-02-14T12:20:55;10.10;99.90
11617;DHT22;5864;52.998;9.068;2023-02-14T12:23:30;10.40;99.90
11617;DHT22;5864;52.998;9.068;2023-02-14T12:26:03;10.30;99.90
11617;DHT22;5864;52.998;9.068;2023-02-14T12:28:38;10.40;99.90
11617;DHT22;5864;52.998;9.068;2023-02-14T12:31:11;10.50;99.90
11617;DHT22;5864;52.998;9.068;2023-02-14T12:33:39;10.60;99.90
11617;DHT22;5864;52.998;9.068;2023-02-14T12:36:13;10.70;99.90
11617;DHT22;5864;52.998;9.068;2023-02-14T12:38:50;10.50;99.90
11617;DHT22;5864;52.998;9.068;2023-02-14T12:41:29;10.50;99.90
11617;DHT22;5864;52.998;9.068;2023-02-14T12:44:04;10.60;99.90
11617;DHT22;5864;52.998;9.068;2023-02-14T12:46:44;10.60;99.90
11617;DHT22;5864;52.998;9.068;2023-02-14T12:49:28;10.70;99.90
11617;DHT22;5864;52.998;9.068;2023-02-14T12:52:07;10.80;99.90
11617;DHT22;5864;52.998;9.068;2023-02-14T12:54:52;10.70;99.90
11617;DHT22;5864;52.998;9.068;2023-02-14T12:57:33;10.90;99.90
11617;DHT22;5864;52.998;9.068;2023-02-14T13:00:14;10.80;99.90
11617;DHT22;5864;52.998;9.068;2023-02-14T13:05:57;11.10;99.90
11617;DHT22;5864;52.998;9.068;2023-02-14T13:08:38;11.30;99.90
11617;DHT22;5864;52.998;9.068;2023-02-14T13:11:22;11.50;99.90
11617;DHT22;5864;52.998;9.068;2023-02-14T13:13:59;11.60;99.90
11617;DHT22;5864;52.998;9.068;2023-02-14T13:16:35;11.70;99.90
11617;DHT22;5864;52.998;9.068;2023-02-14T13:19:16;11.80;99.90
11617;DHT22;5864;52.998;9.068;2023-02-14T13:21:49;11.40;99.90
11617;DHT22;5864;52.998;9.068;2023-02-14T13:24:20;11.90;99.90
11617;DHT22;5864;52.998;9.068;2023-02-14T13:26:52;12.00;99.90
11617;DHT22;5864;52.998;9.068;2023-02-14T13:29:26;11.90;99.90
11617;DHT22;5864;52.998;9.068;2023-02-14T13:32:01;12.10;99.90
11617;DHT22;5864;52.998;9.068;2023-02-14T13:34:32;12.30;99.90
11617;DHT22;5864;52.998;9.068;2023-02-14T13:37:04;12.40;99.90
11617;DHT22;5864;52.998;9.068;2023-02-14T13:39:34;12.60;99.90
11617;DHT22;5864;52.998;9.068;2023-02-14T13:42:04;12.80;99.90
11617;DHT22;5864;52.998;9.068;2023-02-14T13:44:43;12.70;99.90
11617;DHT22;5864;52.998;9.068;2023-02-14T13:47:18;12.90;99.90
11617;DHT22;5864;52.998;9.068;2023-02-14T13:49:49;12.80;99.90
11617;DHT22;5864;52.998;9.068;2023-02-14T13:52:40;12.70;99.90
11617;DHT22;5864;52.998;9.068;2023-02-14T13:55:13;12.70;99.90
11617;DHT22;5864;52.998;9.068;2023-02-14T13:57:44;12.80;99.90
11617;DHT22;5864;52.998;9.068;2023-02-14T14:00:38;12.70;99.90
11617;DHT22;5864;52.998;9.068;2023-02-14T14:03:09;12.70;99.90
11617;DHT22;5864;52.998;9.068;2023-02-14T14:08:42;12.60;99.90
11617;DHT22;5864;52.998;9.068;2023-02-14T14:14:01;12.60;99.90
11617;DHT22;5864;52.998;9.068;2023-02-14T14:16:31;12.70;99.90
11617;DHT22;5864;52.998;9.068;2023-02-14T14:19:01;12.70;99.90
11617;DHT22;5864;52.998;9.068;2023-02-14T14:21:30;12.70;99.90
11617;DHT22;5864;52.998;9.068;2023-02-14T14:24:16;12.70;99.90
11617;DHT22;5864;52.998;9.068;2023-02-14T14:26:45;12.70;99.90
11617;DHT22;5864;52.998;9.068;2023-02-14T14:29:20;12.50;99.90
11617;DHT22;5864;52.998;9.068;2023-02-14T14:31:48;12.40;99.90
11617;DHT22;5864;52.998;9.068;2023-02-14T14:34:22;12.60;99.90
11617;DHT22;5864;52.998;9.068;2023-02-14T14:37:00;12.70;99.90
11617;DHT22;5864;52.998;9.068;2023-02-14T14:39:30;12.60;99.90
11617;DHT22;5864;52.998;9.068;2023-02-14T14:42:05;12.50;99.90
11617;DHT22;5864;52.998;9.068;2023-02-14T14:44:37;12.60;99.90
11617;DHT22;5864;52.998;9.068;2023-02-14T14:47:15;12.50;99.90
11617;DHT22;5864;52.998;9.068;2023-02-14T14:49:43;12.40;99.90
11617;DHT22;5864;52.998;9.068;2023-02-14T14:52:27;11.10;99.90
11617;DHT22;5864;52.998;9.068;2023-02-14T14:54:55;12.50;99.90
11617;DHT22;5864;52.998;9.068;2023-02-14T14:57:23;12.40;99.90
11617;DHT22;5864;52.998;9.068;2023-02-14T15:00:18;12.20;99.90
11617;DHT22;5864;52.998;9.068;2023-02-14T15:02:58;12.20;99.90
11617;DHT22;5864;52.998;9.068;2023-02-14T15:05:28;12.30;99.90
11617;DHT22;5864;52.998;9.068;2023-02-14T15:07:58;12.10;99.90
11617;DHT22;5864;52.998;9.068;2023-02-14T15:10:38;11.80;99.90
11617;DHT22;5864;52.998;9.068;2023-02-14T15:13:09;11.70;99.90
11617;DHT22;5864;52.998;9.068;2023-02-14T15:15:57;11.70;99.90
11617;DHT22;5864;52.998;9.068;2023-02-14T15:18:25;11.60;99.90
11617;DHT22;5864;52.998;9.068;2023-02-14T15:20:53;11.50;99.90
11617;DHT22;5864;52.998;9.068;2023-02-14T15:23:22;11.50;99.90
11617;DHT22;5864;52.998;9.068;2023-02-14T15:25:51;11.50;99.90
11617;DHT22;5864;52.998;9.068;2023-02-14T15:28:30;11.40;99.90
11617;DHT22;5864;52.998;9.068;2023-02-14T15:31:01;11.20;99.90
11617;DHT22;5864;52.998;9.068;2023-02-14T15:33:30;11.20;99.90
11617;DHT22;5864;52.998;9.068;2023-02-14T15:36:02;11.20;99.90
11617;DHT22;5864;52.998;9.068;2023-02-14T15:38:30;11.20;99.90
11617;DHT22;5864;52.998;9.068;2023-02-14T15:40:59;11.20;99.90
11617;DHT22;5864;52.998;9.068;2023-02-14T15:43:29;11.10;99.90
11617;DHT22;5864;52.998;9.068;2023-02-14T15:46:11;11.10;99.90
11617;DHT22;5864;52.998;9.068;2023-02-14T15:48:40;11.00;99.90
11617;DHT22;5864;52.998;9.068;2023-02-14T15:51:15;11.00;99.90
11617;DHT22;5864;52.998;9.068;2023-02-14T15:53:44;11.00;99.90
11617;DHT22;5864;52.998;9.068;2023-02-14T15:56:19;12.50;99.90
11617;DHT22;5864;52.998;9.068;2023-02-14T15:58:47;10.80;99.90
11617;DHT22;5864;52.998;9.068;2023-02-14T16:01:20;10.80;99.90
11617;DHT22;5864;52.998;9.068;2023-02-14T16:03:49;10.70;99.90
11617;DHT22;5864;52.998;9.068;2023-02-14T16:06:31;10.70;99.90
11617;DHT22;5864;52.998;9.068;2023-02-14T16:08:59;10.60;99.90
11617;DHT22;5864;52.998;9.068;2023-02-14T16:11:28;10.60;99.90
11617;DHT22;5864;52.998;9.068;2023-02-14T16:13:56;10.50;99.90
11617;DHT22;5864;52.998;9.068;2023-02-14T16:16:25;10.40;99.90
11617;DHT22;5864;52.998;9.068;2023-02-14T16:19:35;10.40;99.90
11617;DHT22;5864;52.998;9.068;2023-02-14T16:22:04;10.30;99.90
11617;DHT22;5864;52.998;9.068;2023-02-14T16:24:33;10.30;99.90
11617;DHT22;5864;52.998;9.068;2023-02-14T16:27:01;10.20;99.90
11617;DHT22;5864;52.998;9.068;2023-02-14T16:29:33;10.20;99.90
11617;DHT22;5864;52.998;9.068;2023-02-14T16:32:11;10.10;99.90
11617;DHT22;5864;52.998;9.068;2023-02-14T16:34:39;10.00;99.90
11617;DHT22;5864;52.998;9.068;2023-02-14T16:37:14;10.00;99.90
11617;DHT22;5864;52.998;9.068;2023-02-14T16:39:44;9.90;99.90
11617;DHT22;5864;52.998;9.068;2023-02-14T16:42:14;9.50;99.90
11617;DHT22;5864;52.998;9.068;2023-02-14T16:44:43;9.70;99.90
11617;DHT22;5864;52.998;9.068;2023-02-14T16:47:14;9.60;99.90